PY-0018 weather

Estancia Lomas Airport
Rosario, San Pedro Department, Paraguay

Public forecast

Using degrees Celsius for public forecast. Weather courtesy of forecast.io.

METAR (pilot weather report)

Report is more than 6 hours old.

Closest report is San Pedro Airport, 32.2 nm (59.7 km) N. Retrieved 2017/07/31 15:00 UTC (4 months ago):

SGSP 311500Z 00000KT CAVOK 27/12 Q1015

TAF (pilot weather forecast)

Forecast is more than 12 hours old.

Closest forecast is Silvio Pettirossi International Airport, 42.5 nm (78.7 km) SSW. Retrieved 2017/12/07 06:15 UTC (4 days ago):

TAF SGAS 071013Z 0706/0806 00000KT CAVOK TX35/0718Z TN23/0809Z BECMG 0714/0717 15007 9999 SCT033 BECMG 0800/0802 CAVOK